Impacts METAR Board
IDs:

KORD - Chicago/O'Hare Intl, IL, US

Updated at: 0700 UTC 24 Sep 2018
Potential Impact None Slight Moderate High
Time 23/19Z 23/20Z 23/21Z 23/22Z 23/23Z 24/00Z 24/01Z 24/02Z 24/03Z 24/04Z 24/05Z 24/06Z 24/07Z
Temp70 70 70 68 67 65 64 64 64 62 62 61 60
Dewpt51 51 50 52 52 53 54 55 56 56 56 54 54
Altim30.13 30.12 30.11 30.10 30.11 30.12 30.12 30.12 30.12 30.12 30.12 30.12 30.12
VIS10 10 10 10 10 10 10 10 10 10 10 10 10
CIG-- -- -- -- -- -- -- -- -- -- -- -- --
CoverCLRCLRCLRCLRCLRFEWCLRCLRCLRCLRCLRCLRCLR
FltCatVFRVFRVFRVFRVFRVFRVFRVFRVFRVFRVFRVFRVFR
WX--------------------------
WDir8070806070707060609090120120
WSpd9 9 7 9 9 8 8 8 6 4 3 5 6
WGst-- -- -- -- -- -- -- -- -- -- -- -- --
Raw hourly METARs
KORD 231851Z 08009KT 10SM CLR 21/11 A3013 RMK AO2 SLP203 T02110106
KORD 231951Z 07009KT 10SM CLR 21/11 A3012 RMK AO2 SLP198 T02110106
KORD 232051Z 08007KT 10SM CLR 21/10 A3011 RMK AO2 SLP194 T02110100 56019
KORD 232151Z 06009KT 10SM CLR 20/11 A3010 RMK AO2 SLP194 T02000111
KORD 232251Z 07009KT 10SM CLR 19/11 A3011 RMK AO2 SLP195 T01940111
KORD 232351Z 07008KT 10SM FEW250 18/12 A3012 RMK AO2 SLP198 T01830117 10217 20183 53003
KORD 240051Z 07008KT 10SM CLR 18/12 A3012 RMK AO2 SLP200 T01780122
KORD 240151Z 06008KT 10SM CLR 18/13 A3012 RMK AO2 SLP199 T01780128
KORD 240251Z 06006KT 10SM CLR 18/13 A3012 RMK AO2 SLP199 T01780133 51002
KORD 240351Z 09004KT 10SM CLR 17/13 A3012 RMK AO2 SLP200 T01670133
KORD 240451Z 09003KT 10SM CLR 17/13 A3012 RMK AO2 SLP196 T01670133
KORD 240551Z 12005KT 10SM CLR 16/12 A3012 RMK AO2 SLP197 T01610122 10183 20161 402170100 55001
KORD 240651Z 12006KT 10SM CLR 16/12 A3012 RMK AO2 SLP197 T01560122



Page loaded:  07:58 UTC  |   12:58 AM Pacific  |   01:58 AM Mountain  |   02:58 AM Central  |   03:58 AM Eastern

 

ADVISORIES

FORECASTS

FORECASTS

OBSERVATIONS

USER TOOLS

ABOUT US